Time;durP1;ratioP1;P1;durP2;ratioP2;P2;SDS_P1;SDS_P2;PMS_P1;PMS_P2;Temp;Humidity;BMP_temperature;BMP_pressure;BME280_temperature;BME280_humidity;BME280_pressure;Samples;Min_cycle;Max_cycle;Signal;HPM_P1;HPM_P2
2023/11/23 00:02:17;;;;;;;14.47;8.80;;;9.90;98.70;;;;;;5072991;28;20190;-62
2023/11/23 00:04:43;;;;;;;11.17;8.10;;;9.70;98.90;;;;;;5050859;28;20431;-62
2023/11/23 00:07:09;;;;;;;10.07;8.17;;;9.60;99.70;;;;;;5055492;28;20439;-61
2023/11/23 00:09:36;;;;;;;11.13;8.40;;;9.60;99.90;;;;;;5072201;28;20587;-60
2023/11/23 00:12:02;;;;;;;7.90;6.83;;;9.50;99.90;;;;;;5071764;28;20193;-62
2023/11/23 00:14:30;;;;;;;10.07;8.23;;;9.50;99.90;;;;;;5071638;28;20971;-61
2023/11/23 00:16:56;;;;;;;10.47;7.93;;;9.50;99.90;;;;;;5091432;28;20468;-62
2023/11/23 00:19:22;;;;;;;9.27;6.97;;;9.60;99.90;;;;;;5086425;28;20458;-62
2023/11/23 00:21:48;;;;;;;9.80;7.43;;;9.60;99.90;;;;;;5072842;28;20880;-62
2023/11/23 00:24:17;;;;;;;9.80;7.10;;;9.60;99.90;;;;;;5077385;28;20423;-62
2023/11/23 00:26:46;;;;;;;10.03;7.60;;;9.70;99.90;;;;;;5074879;28;20171;-62
2023/11/23 00:29:11;;;;;;;9.73;7.07;;;9.70;99.90;;;;;;5092153;28;20429;-62
2023/11/23 00:31:37;;;;;;;9.43;8.43;;;9.80;99.90;;;;;;5074752;28;20459;-62
2023/11/23 00:34:05;;;;;;;9.60;8.10;;;9.80;99.90;;;;;;5088882;28;20167;-62
2023/11/23 00:36:37;;;;;;;8.73;7.70;;;9.80;99.90;;;;;;5073359;28;20177;-62
2023/11/23 00:39:04;;;;;;;10.10;7.50;;;9.80;99.90;;;;;;5084429;28;20416;-62
2023/11/23 00:41:30;;;;;;;11.03;8.30;;;9.80;99.90;;;;;;5072957;28;20417;-62
2023/11/23 00:43:57;;;;;;;9.27;7.80;;;9.80;99.90;;;;;;5072724;28;20441;-62
2023/11/23 00:46:23;;;;;;;9.27;7.60;;;9.80;99.90;;;;;;5092563;28;20268;-62
2023/11/23 00:48:48;;;;;;;8.77;7.60;;;9.80;99.90;;;;;;5074324;28;20539;-62
2023/11/23 00:51:15;;;;;;;10.33;7.67;;;9.80;99.90;;;;;;5091716;28;20406;-62
2023/11/23 00:53:42;;;;;;;12.33;9.10;;;9.80;99.90;;;;;;5090543;28;20632;-62
2023/11/23 00:56:08;;;;;;;8.60;7.70;;;9.80;99.90;;;;;;5091901;28;20409;-62
2023/11/23 00:58:34;;;;;;;11.60;8.30;;;9.80;99.90;;;;;;5086089;28;20425;-62
2023/11/23 01:01:00;;;;;;;9.90;7.83;;;9.80;99.90;;;;;;5071812;28;20416;-62
2023/11/23 01:03:27;;;;;;;9.13;7.97;;;9.90;99.90;;;;;;5067848;28;20426;-62
2023/11/23 01:05:53;;;;;;;11.07;8.20;;;9.90;99.90;;;;;;5089557;28;20424;-60
2023/11/23 01:08:18;;;;;;;8.93;7.53;;;9.90;99.90;;;;;;5092589;28;20439;-62
2023/11/23 01:10:44;;;;;;;10.40;8.40;;;9.90;99.90;;;;;;5059978;28;20204;-62
2023/11/23 01:13:12;;;;;;;10.30;8.07;;;9.90;99.90;;;;;;5051790;28;20179;-62
2023/11/23 01:15:38;;;;;;;11.83;8.37;;;9.90;99.90;;;;;;5085119;28;20231;-62
2023/11/23 01:18:03;;;;;;;12.30;8.90;;;9.90;99.90;;;;;;5091670;28;20441;-62
2023/11/23 01:20:29;;;;;;;10.13;8.20;;;9.90;99.90;;;;;;5092283;28;20437;-62
2023/11/23 01:22:56;;;;;;;12.73;8.40;;;9.90;99.90;;;;;;5087001;28;20513;-61
2023/11/23 01:25:21;;;;;;;10.83;9.00;;;9.90;99.90;;;;;;5085185;28;20195;-62
2023/11/23 01:27:47;;;;;;;15.67;9.40;;;9.90;99.90;;;;;;5092145;28;20405;-62
2023/11/23 01:30:13;;;;;;;12.67;8.50;;;9.90;99.90;;;;;;5091746;28;20823;-62
2023/11/23 01:32:39;;;;;;;12.30;8.33;;;9.90;99.90;;;;;;5074106;28;20176;-62
2023/11/23 01:35:06;;;;;;;12.50;9.07;;;9.90;99.90;;;;;;5089568;28;20623;-62
2023/11/23 01:37:35;;;;;;;10.13;8.10;;;9.90;99.90;;;;;;5059031;28;20233;-61
2023/11/23 01:40:03;;;;;;;11.37;8.50;;;10.00;99.90;;;;;;5051163;28;20532;-61
2023/11/23 01:42:29;;;;;;;15.70;9.90;;;9.90;99.90;;;;;;5055878;28;20433;-62
2023/11/23 01:44:55;;;;;;;11.70;9.43;;;9.90;99.90;;;;;;5066024;28;20495;-61
2023/11/23 01:47:21;;;;;;;13.67;8.90;;;9.90;99.90;;;;;;5095844;28;20449;-62
2023/11/23 01:49:48;;;;;;;11.37;8.83;;;9.80;99.90;;;;;;5079672;28;20241;-62
2023/11/23 01:52:15;;;;;;;9.90;8.47;;;9.40;99.90;;;;;;5074896;28;20402;-62
2023/11/23 01:54:41;;;;;;;10.20;8.73;;;9.90;99.90;;;;;;5082052;28;20425;-62
2023/11/23 01:57:07;;;;;;;9.87;8.87;;;9.90;99.90;;;;;;5095105;28;20496;-62
2023/11/23 01:59:34;;;;;;;11.33;9.03;;;10.10;99.90;;;;;;5094406;28;20409;-62
2023/11/23 02:02:02;;;;;;;11.90;9.13;;;10.00;99.90;;;;;;5082113;28;20812;-62
2023/11/23 02:04:28;;;;;;;11.00;9.07;;;9.90;99.90;;;;;;5079807;28;20430;-62
2023/11/23 02:06:54;;;;;;;11.93;9.80;;;9.90;99.90;;;;;;5095447;28;20408;-62
2023/11/23 02:09:20;;;;;;;16.53;10.20;;;9.80;99.90;;;;;;5094781;28;20492;-61
2023/11/23 02:11:46;;;;;;;13.40;9.13;;;9.60;99.90;;;;;;5095415;28;20441;-62
2023/11/23 02:14:12;;;;;;;13.80;10.13;;;9.60;99.90;;;;;;5074673;28;20437;-63
2023/11/23 02:16:38;;;;;;;10.57;9.30;;;9.70;99.90;;;;;;5058220;28;20467;-62
2023/11/23 05:19:36;;;;;;;21.20;14.40;;;10.40;99.90;;;;;;4900439;28;20516;-64
2023/11/23 05:22:02;;;;;;;17.77;13.90;;;10.40;99.90;;;;;;5036885;28;20942;-64
2023/11/23 05:24:28;;;;;;;17.10;13.37;;;10.50;99.90;;;;;;5036090;28;20225;-63
2023/11/23 05:26:55;;;;;;;18.43;13.80;;;10.40;99.90;;;;;;5036181;28;20443;-63
2023/11/23 05:29:21;;;;;;;18.50;13.63;;;10.50;99.90;;;;;;5035390;28;20208;-64
2023/11/23 05:31:47;;;;;;;21.50;13.70;;;10.60;99.90;;;;;;5036001;28;20401;-63
2023/11/23 05:34:13;;;;;;;20.90;14.43;;;10.60;99.90;;;;;;5035440;28;20576;-62
2023/11/23 05:36:39;;;;;;;23.43;16.00;;;10.60;99.90;;;;;;5035943;28;20484;-64
2023/11/23 05:39:04;;;;;;;23.63;14.77;;;10.60;99.90;;;;;;5036223;28;20533;-64
2023/11/23 05:41:30;;;;;;;18.87;14.90;;;10.60;99.90;;;;;;5035888;28;20201;-63
2023/11/23 05:43:58;;;;;;;19.83;14.97;;;10.70;99.90;;;;;;5036088;28;20558;-63
2023/11/23 05:46:24;;;;;;;19.93;15.37;;;10.70;99.90;;;;;;5035173;28;20211;-64
2023/11/23 05:48:50;;;;;;;23.00;14.80;;;10.70;99.90;;;;;;5035844;28;20527;-63
2023/11/23 05:51:16;;;;;;;20.50;14.03;;;10.70;99.90;;;;;;5035137;28;20176;-63
2023/11/23 05:53:42;;;;;;;25.47;18.00;;;10.70;99.90;;;;;;5035641;28;20411;-63
2023/11/23 05:56:08;;;;;;;23.53;15.63;;;10.80;99.90;;;;;;5035110;28;20162;-63
2023/11/23 05:58:33;;;;;;;23.87;18.17;;;10.80;99.90;;;;;;5035590;28;20416;-60
2023/11/23 06:00:59;;;;;;;21.40;15.47;;;10.80;99.90;;;;;;5035574;28;20884;-60
2023/11/23 06:03:25;;;;;;;23.13;17.60;;;10.80;99.90;;;;;;5034883;28;20249;-61
2023/11/23 06:05:51;;;;;;;19.73;15.10;;;10.90;99.90;;;;;;5034262;28;20712;-60
2023/11/23 06:08:17;;;;;;;20.40;15.30;;;10.90;99.90;;;;;;5035005;28;20759;-59
2023/11/23 06:10:42;;;;;;;20.10;14.93;;;10.90;99.90;;;;;;5035484;28;20456;-59
2023/11/23 06:13:08;;;;;;;21.93;15.90;;;10.90;99.90;;;;;;5034753;28;20199;-59
2023/11/23 06:15:34;;;;;;;23.90;16.63;;;11.00;99.90;;;;;;5035232;28;20173;-60
2023/11/23 06:18:00;;;;;;;22.97;16.13;;;11.00;99.90;;;;;;5035280;28;20195;-60
2023/11/23 06:20:25;;;;;;;23.30;17.50;;;11.00;99.90;;;;;;5054571;28;20231;-59
2023/11/23 06:22:51;;;;;;;18.70;14.80;;;11.00;99.90;;;;;;5055133;28;20178;-61
2023/11/23 06:25:17;;;;;;;21.17;15.80;;;11.10;99.90;;;;;;5036915;28;20183;-61
2023/11/23 06:27:42;;;;;;;17.87;14.00;;;11.10;99.90;;;;;;5055128;28;20639;-60
2023/11/23 06:30:09;;;;;;;22.47;15.53;;;11.10;99.90;;;;;;5019792;28;20362;-58
2023/11/23 06:32:36;;;;;;;22.90;16.00;;;11.10;99.90;;;;;;5054933;28;20419;-60
2023/11/23 06:35:01;;;;;;;23.00;16.47;;;11.20;99.90;;;;;;5054998;28;20416;-60
2023/11/23 06:37:27;;;;;;;21.13;15.47;;;11.20;99.90;;;;;;5054127;28;20408;-60
2023/11/23 06:39:53;;;;;;;22.23;16.47;;;11.30;99.90;;;;;;5054503;28;20178;-59
2023/11/23 06:42:20;;;;;;;21.70;14.57;;;11.30;99.90;;;;;;5054203;28;20188;-59
2023/11/23 06:44:46;;;;;;;23.03;16.90;;;11.30;99.90;;;;;;5054572;28;20193;-67
2023/11/23 06:47:12;;;;;;;21.13;16.40;;;11.30;99.90;;;;;;5053804;28;20462;-65
2023/11/23 06:49:40;;;;;;;21.03;15.57;;;11.40;99.90;;;;;;5054236;28;20460;-65
2023/11/23 06:52:06;;;;;;;23.63;17.13;;;11.50;99.90;;;;;;5054542;28;20618;-72
2023/11/23 06:54:32;;;;;;;24.23;17.40;;;11.40;99.90;;;;;;5053851;28;20425;-66
2023/11/23 06:56:58;;;;;;;19.80;16.43;;;11.50;99.90;;;;;;5054602;28;20817;-65
2023/11/23 06:59:24;;;;;;;23.10;16.90;;;11.50;99.90;;;;;;5053851;28;20495;-65
2023/11/23 07:01:49;;;;;;;19.07;15.90;;;11.60;99.90;;;;;;5054479;28;20228;-65
2023/11/23 07:04:15;;;;;;;20.77;15.60;;;11.50;99.90;;;;;;5053921;28;20538;-66
2023/11/23 07:06:41;;;;;;;17.63;14.77;;;11.50;99.90;;;;;;5054488;28;20245;-65
2023/11/23 07:09:07;;;;;;;17.27;14.53;;;11.50;99.90;;;;;;5054131;28;20243;-66
2023/11/23 07:11:33;;;;;;;18.77;16.17;;;11.50;99.90;;;;;;5053557;28;20783;-66
2023/11/23 07:14:00;;;;;;;18.33;13.77;;;11.50;99.90;;;;;;5054059;28;20206;-66
2023/11/23 07:16:27;;;;;;;16.87;13.67;;;11.50;99.90;;;;;;5053410;28;20533;-66
2023/11/23 07:18:52;;;;;;;22.97;14.30;;;11.50;99.90;;;;;;5046686;28;20823;-66
2023/11/23 07:21:18;;;;;;;19.30;15.70;;;11.50;99.90;;;;;;5033368;28;20414;-65
2023/11/23 07:23:44;;;;;;;20.00;14.67;;;11.50;99.90;;;;;;5033957;28;20405;-66
2023/11/23 07:26:11;;;;;;;21.17;15.57;;;11.60;99.90;;;;;;5034415;28;20306;-66
2023/11/23 07:28:37;;;;;;;21.70;15.80;;;11.60;99.90;;;;;;5034154;28;20719;-66
2023/11/23 07:31:03;;;;;;;25.77;15.67;;;11.70;99.90;;;;;;5033850;28;20463;-66
2023/11/23 07:33:34;;;;;;;17.50;14.60;;;11.70;99.90;;;;;;5033198;28;20412;-65
2023/11/23 07:36:02;;;;;;;19.50;15.60;;;11.60;99.90;;;;;;5033760;28;20165;-65
2023/11/23 07:38:27;;;;;;;20.67;15.93;;;11.70;99.90;;;;;;5033075;28;20455;-65
2023/11/23 07:40:53;;;;;;;27.07;16.03;;;11.60;99.90;;;;;;5015547;28;20405;-65
2023/11/23 07:43:19;;;;;;;21.03;15.87;;;11.60;99.90;;;;;;5033200;28;20220;-64
2023/11/23 07:45:44;;;;;;;19.53;16.07;;;11.60;99.90;;;;;;5033565;28;20162;-65
2023/11/23 07:48:13;;;;;;;20.40;15.20;;;11.60;99.90;;;;;;5033497;28;20177;-64
2023/11/23 07:50:39;;;;;;;19.93;15.20;;;11.70;99.90;;;;;;5033814;28;20220;-64
2023/11/23 07:53:07;;;;;;;18.70;14.77;;;11.70;99.90;;;;;;5015652;28;20428;-64
2023/11/23 07:55:33;;;;;;;22.43;17.50;;;11.70;99.90;;;;;;5032784;28;20407;-64
2023/11/23 07:57:58;;;;;;;17.03;14.50;;;11.70;99.90;;;;;;5015839;28;20940;-65
2023/11/23 08:00:25;;;;;;;19.47;15.70;;;11.80;99.90;;;;;;5032582;28;20215;-64
2023/11/23 08:02:52;;;;;;;21.00;16.10;;;11.80;99.90;;;;;;5033493;28;20525;-64
2023/11/23 08:05:18;;;;;;;20.70;15.47;;;11.80;99.90;;;;;;5032572;28;20412;-64
2023/11/23 08:07:44;;;;;;;21.33;15.63;;;11.90;99.90;;;;;;5033093;28;20749;-62
2023/11/23 08:10:15;;;;;;;19.10;14.33;;;12.10;99.90;;;;;;5035219;28;20288;-62
2023/11/23 08:12:42;;;;;;;15.97;14.27;;;12.50;99.90;;;;;;5050023;28;20171;-62
2023/11/23 08:15:09;;;;;;;19.50;14.40;;;12.90;99.90;;;;;;5052436;28;20451;-62
2023/11/23 08:17:39;;;;;;;16.23;13.43;;;13.20;99.90;;;;;;5052048;28;20443;-62
2023/11/23 08:20:08;;;;;;;14.80;13.13;;;13.50;99.90;;;;;;5052539;28;20469;-62
2023/11/23 08:22:38;;;;;;;17.37;14.37;;;13.80;99.90;;;;;;5051736;28;20422;-62
2023/11/23 08:25:04;;;;;;;19.63;13.53;;;14.10;99.90;;;;;;5052380;28;20411;-63
2023/11/23 08:27:30;;;;;;;17.10;14.17;;;14.30;99.90;;;;;;5051946;28;20800;-62
2023/11/23 08:29:56;;;;;;;17.13;13.93;;;14.50;99.90;;;;;;5052181;28;20209;-62
2023/11/23 08:32:22;;;;;;;14.70;13.13;;;14.60;99.90;;;;;;5051968;28;20257;-62
2023/11/23 08:34:52;;;;;;;13.30;12.00;;;14.70;99.90;;;;;;5052190;28;20189;-62
2023/11/23 08:37:18;;;;;;;15.50;13.57;;;14.80;99.90;;;;;;5051864;28;20432;-63
2023/11/23 08:39:46;;;;;;;15.70;13.53;;;14.90;99.90;;;;;;5052526;28;20458;-62
2023/11/23 08:42:12;;;;;;;14.60;13.10;;;15.00;99.90;;;;;;5052473;28;20406;-63
2023/11/23 08:44:38;;;;;;;16.83;14.50;;;15.00;99.90;;;;;;5051909;28;20409;-62
2023/11/23 08:47:04;;;;;;;13.33;12.03;;;15.10;99.90;;;;;;5052483;28;20408;-62
2023/11/23 08:49:31;;;;;;;17.00;14.27;;;15.10;99.90;;;;;;5051331;28;20201;-62
2023/11/23 08:51:57;;;;;;;16.50;14.13;;;15.20;99.90;;;;;;5052162;28;20418;-69
2023/11/23 08:54:23;;;;;;;16.50;14.90;;;14.90;99.90;;;;;;5051457;28;20922;-68
2023/11/23 08:56:49;;;;;;;16.87;15.20;;;14.60;99.90;;;;;;5034281;28;20412;-68
2023/11/23 08:59:14;;;;;;;17.40;15.03;;;14.30;99.90;;;;;;5052652;28;20174;-69
2023/11/23 09:01:40;;;;;;;19.17;15.50;;;14.00;99.90;;;;;;5051600;28;20170;-68
2023/11/23 09:04:06;;;;;;;17.37;15.40;;;13.80;99.90;;;;;;5052338;28;20163;-69
2023/11/23 09:06:32;;;;;;;17.33;15.30;;;13.50;99.90;;;;;;5051469;28;20180;-68
2023/11/23 09:09:00;;;;;;;21.83;17.90;;;13.30;99.90;;;;;;5052295;28;20171;-69
2023/11/23 09:11:26;;;;;;;17.83;14.30;;;13.10;99.90;;;;;;5051803;28;20177;-66
2023/11/23 09:13:52;;;;;;;23.73;15.67;;;12.90;99.90;;;;;;5052082;28;20411;-67
2023/11/23 09:16:18;;;;;;;18.63;14.27;;;12.90;99.90;;;;;;5051769;28;20500;-67
2023/11/23 09:18:44;;;;;;;18.07;14.53;;;12.80;99.90;;;;;;5051905;28;20618;-71
2023/11/23 09:21:10;;;;;;;16.97;15.27;;;12.70;99.90;;;;;;5052550;28;20405;-69
2023/11/23 09:23:36;;;;;;;17.63;15.50;;;12.50;99.90;;;;;;5051667;28;20423;-70
2023/11/23 09:26:04;;;;;;;17.20;14.40;;;12.50;99.90;;;;;;5052235;28;20773;-70
2023/11/23 09:28:30;;;;;;;21.57;16.57;;;12.40;99.90;;;;;;5051678;28;20505;-69
2023/11/23 09:30:56;;;;;;;19.10;15.33;;;12.20;99.90;;;;;;5051935;28;20526;-70
2023/11/23 09:33:22;;;;;;;22.50;14.67;;;12.30;99.90;;;;;;5051354;28;20564;-69
2023/11/23 09:35:48;;;;;;;22.20;15.47;;;12.20;99.90;;;;;;5052198;28;20413;-69
2023/11/23 09:38:14;;;;;;;21.77;16.37;;;12.20;99.90;;;;;;5051990;28;20168;-70
2023/11/23 09:40:44;;;;;;;22.07;16.93;;;12.10;99.90;;;;;;5051327;28;20404;-70
2023/11/23 09:43:10;;;;;;;25.93;16.17;;;12.10;99.90;;;;;;5051854;28;20507;-69
2023/11/23 09:45:36;;;;;;;21.60;16.93;;;12.00;99.90;;;;;;5051467;28;20416;-70
2023/11/23 09:48:05;;;;;;;18.60;15.70;;;12.00;99.90;;;;;;5051863;28;20809;-70
2023/11/23 09:50:31;;;;;;;23.30;16.50;;;12.00;99.90;;;;;;5033479;28;20235;-70
2023/11/23 09:52:59;;;;;;;21.40;18.13;;;11.90;99.90;;;;;;5051846;28;20489;-70
2023/11/23 09:55:29;;;;;;;21.37;16.00;;;12.00;99.90;;;;;;5051272;28;20455;-70
2023/11/23 09:57:55;;;;;;;23.07;17.47;;;11.90;99.90;;;;;;5051825;28;20483;-70
2023/11/23 10:00:21;;;;;;;20.73;16.93;;;11.90;99.90;;;;;;5051299;28;20503;-65
2023/11/23 10:02:55;;;;;;;24.50;17.70;;;12.00;99.90;;;;;;5051990;28;20592;-70
2023/11/23 10:05:26;;;;;;;24.33;17.90;;;11.90;99.90;;;;;;5037246;28;20696;-66
2023/11/23 10:07:54;;;;;;;21.80;17.17;;;11.90;99.90;;;;;;5055607;28;20767;-70
2023/11/23 10:10:20;;;;;;;19.47;16.27;;;12.00;99.90;;;;;;5055266;28;20853;-70
2023/11/23 10:12:46;;;;;;;22.50;17.13;;;11.90;99.90;;;;;;5054703;28;20412;-70
2023/11/23 10:15:12;;;;;;;23.90;16.20;;;12.00;99.90;;;;;;5055455;28;20408;-70
2023/11/23 10:17:41;;;;;;;23.10;17.27;;;12.00;99.90;;;;;;5054621;28;20175;-70
2023/11/23 10:20:17;;;;;;;22.07;16.87;;;12.00;99.90;;;;;;5055230;28;20467;-69
2023/11/23 10:22:47;;;;;;;21.53;16.10;;;12.10;99.90;;;;;;5054623;28;20400;-71
2023/11/23 10:25:34;;;;;;;21.80;16.27;;;12.10;99.90;;;;;;5054994;28;20464;-70
2023/11/23 10:28:04;;;;;;;22.37;16.03;;;12.00;99.90;;;;;;5054895;28;20426;-70
2023/11/23 10:30:31;;;;;;;18.90;15.73;;;12.00;99.90;;;;;;5054266;28;20509;-69
2023/11/23 10:32:58;;;;;;;20.20;16.73;;;12.00;99.90;;;;;;5054918;28;20440;-70
2023/11/23 10:35:40;;;;;;;19.30;15.70;;;12.00;99.90;;;;;;5054394;28;20493;-69
2023/11/23 10:38:07;;;;;;;19.60;15.37;;;12.00;99.90;;;;;;5054847;28;20399;-70
2023/11/23 10:40:34;;;;;;;19.77;15.70;;;12.00;99.90;;;;;;5054235;28;20471;-70
2023/11/23 10:43:01;;;;;;;22.37;15.87;;;12.00;99.90;;;;;;5054772;28;20495;-70
2023/11/23 10:45:27;;;;;;;18.67;15.30;;;12.00;99.90;;;;;;5054136;28;20544;-70
2023/11/23 10:47:54;;;;;;;20.37;15.77;;;12.00;99.90;;;;;;5054563;28;20404;-70
2023/11/23 10:50:20;;;;;;;19.17;16.00;;;12.00;99.90;;;;;;5054844;28;20444;-71
2023/11/23 10:52:48;;;;;;;20.03;16.53;;;12.00;99.90;;;;;;5053997;28;20825;-70
2023/11/23 10:55:14;;;;;;;19.50;16.60;;;12.10;99.90;;;;;;5054597;28;20400;-70
2023/11/23 10:57:43;;;;;;;22.17;16.40;;;12.10;99.90;;;;;;5053875;28;20894;-71
2023/11/23 11:00:15;;;;;;;18.17;14.60;;;12.10;99.90;;;;;;5054833;28;20185;-70
2023/11/23 11:02:43;;;;;;;21.57;16.97;;;12.10;99.90;;;;;;5053871;28;20908;-70
2023/11/23 11:05:34;;;;;;;17.97;15.10;;;12.10;99.90;;;;;;5054390;28;20420;-70
2023/11/23 11:08:07;;;;;;;18.43;14.23;;;12.10;99.90;;;;;;5054591;28;20878;-70
2023/11/23 11:10:53;;;;;;;20.20;16.33;;;12.10;99.90;;;;;;5053531;28;20471;-69
2023/11/23 11:13:24;;;;;;;19.43;15.13;;;12.10;99.90;;;;;;5054264;28;20381;-67
2023/11/23 11:16:06;;;;;;;13.83;12.50;;;12.20;99.90;;;;;;5053329;28;20404;-66
2023/11/23 11:18:38;;;;;;;16.50;12.00;;;12.30;99.90;;;;;;5053179;28;20843;-66
2023/11/23 11:21:16;;;;;;;18.93;13.40;;;13.00;99.90;;;;;;5054246;28;20428;-66
2023/11/23 11:23:44;;;;;;;17.50;13.60;;;13.50;99.90;;;;;;5053305;28;20423;-66
2023/11/23 11:26:16;;;;;;;18.00;12.93;;;13.90;99.90;;;;;;5053617;28;20417;-66
2023/11/23 11:28:50;;;;;;;28.43;21.27;;;14.20;99.90;;;;;;5053177;28;20415;-69
2023/11/23 11:31:18;;;;;;;19.17;16.27;;;14.60;99.90;;;;;;5053684;28;20393;-69
2023/11/23 11:33:51;;;;;;;28.10;19.47;;;14.90;99.90;;;;;;5052829;28;20397;-69
2023/11/23 11:36:17;;;;;;;21.63;17.47;;;14.90;99.90;;;;;;5053696;28;20417;-69
2023/11/23 11:38:54;;;;;;;16.30;13.80;;;14.70;99.90;;;;;;5053018;28;20406;-69
2023/11/23 11:41:21;;;;;;;13.50;12.20;;;14.70;99.90;;;;;;5053264;28;20794;-68
2023/11/23 11:43:47;;;;;;;17.73;15.83;;;14.80;99.90;;;;;;5052719;28;20440;-69
2023/11/23 11:46:13;;;;;;;17.67;14.33;;;14.70;99.90;;;;;;5018814;28;20448;-68
2023/11/23 11:51:21;;;;;;;20.97;18.20;;;14.90;99.90;;;;;;2980875;23;20255;-67
2023/11/23 11:53:47;;;;;;;16.20;14.00;;;14.60;99.90;;;;;;5006893;28;20875;-69
2023/11/23 11:56:13;;;;;;;17.43;15.60;;;14.60;99.90;;;;;;5002930;28;20645;-71
2023/11/23 11:58:39;;;;;;;16.50;14.80;;;14.60;99.90;;;;;;5005977;28;20179;-69
2023/11/23 12:01:08;;;;;;;13.53;12.13;;;14.50;99.90;;;;;;5005303;28;20423;-69
2023/11/23 12:03:34;;;;;;;11.73;10.53;;;14.80;99.90;;;;;;4990271;28;20414;-69
2023/11/23 12:06:03;;;;;;;11.97;10.80;;;14.80;99.90;;;;;;4986935;28;20418;-69
2023/11/23 12:08:33;;;;;;;11.97;10.77;;;14.70;99.90;;;;;;5003839;28;20415;-68
2023/11/23 12:10:59;;;;;;;11.13;10.00;;;14.80;99.90;;;;;;4986701;28;20462;-70
2023/11/23 12:13:25;;;;;;;11.43;10.33;;;14.60;99.90;;;;;;5001397;28;20416;-68
2023/11/23 12:15:54;;;;;;;12.50;10.77;;;14.50;99.90;;;;;;4986114;28;20174;-70
2023/11/23 12:18:32;;;;;;;10.80;8.77;;;14.50;99.90;;;;;;5002057;28;20622;-69
2023/11/23 12:20:59;;;;;;;12.07;9.13;;;14.60;99.90;;;;;;5001941;28;20781;-69
2023/11/23 12:23:26;;;;;;;10.40;9.50;;;14.70;99.90;;;;;;5005099;28;20423;-70
2023/11/23 12:25:53;;;;;;;9.73;8.13;;;14.30;99.90;;;;;;5004479;28;20469;-69
2023/11/23 12:28:21;;;;;;;9.30;8.40;;;14.30;99.90;;;;;;5002967;28;20411;-71
2023/11/23 12:30:47;;;;;;;9.03;8.20;;;14.50;99.90;;;;;;5000477;28;20461;-70
2023/11/23 12:33:13;;;;;;;10.53;9.53;;;14.60;99.90;;;;;;5003999;28;20416;-69
2023/11/23 12:35:39;;;;;;;11.87;10.73;;;14.80;99.90;;;;;;4998118;28;20417;-69
2023/11/23 12:38:06;;;;;;;11.23;10.33;;;14.60;99.90;;;;;;4976267;28;20487;-69
2023/11/23 12:40:32;;;;;;;23.00;19.83;;;14.30;99.90;;;;;;4992820;28;20839;-69
2023/11/23 12:42:58;;;;;;;22.30;16.90;;;14.00;99.90;;;;;;4976076;28;20430;-69
2023/11/23 12:45:25;;;;;;;14.67;10.67;;;13.80;99.90;;;;;;4993423;28;20415;-70
2023/11/23 12:47:51;;;;;;;10.07;9.27;;;13.60;99.90;;;;;;4975291;28;20476;-70
2023/11/23 12:50:18;;;;;;;10.50;9.60;;;13.50;99.90;;;;;;4993359;28;20449;-69
2023/11/23 12:52:44;;;;;;;11.73;10.03;;;13.40;99.90;;;;;;4992734;28;20468;-69
2023/11/23 12:55:10;;;;;;;10.90;9.90;;;13.30;99.90;;;;;;4993215;28;20423;-71
2023/11/23 12:57:39;;;;;;;10.67;9.57;;;13.20;99.90;;;;;;4993019;28;20414;-67
2023/11/23 13:00:06;;;;;;;10.07;9.07;;;13.10;99.90;;;;;;5004457;28;20432;-68
2023/11/23 13:02:32;;;;;;;9.33;8.40;;;13.00;99.90;;;;;;4999751;28;20406;-67
2023/11/23 13:04:58;;;;;;;10.30;9.40;;;13.00;99.90;;;;;;5001526;28;20403;-67
2023/11/23 13:07:26;;;;;;;10.60;9.50;;;12.90;99.90;;;;;;4986260;28;20523;-67
2023/11/23 13:09:52;;;;;;;9.30;8.40;;;12.80;99.90;;;;;;4992734;28;20516;-67
2023/11/23 13:12:18;;;;;;;11.53;9.07;;;12.80;99.90;;;;;;4999927;28;20426;-66
2023/11/23 13:14:49;;;;;;;11.60;9.23;;;12.80;99.90;;;;;;5005128;28;20754;-67
2023/11/23 13:17:17;;;;;;;10.10;9.27;;;12.80;99.90;;;;;;5012640;28;20412;-67
2023/11/23 13:19:47;;;;;;;11.37;10.17;;;12.80;99.90;;;;;;5011200;28;20432;-67
2023/11/23 13:22:15;;;;;;;9.60;8.60;;;12.80;99.90;;;;;;5011510;28;20960;-67
2023/11/23 13:24:42;;;;;;;10.60;9.50;;;12.80;99.90;;;;;;5012486;28;20408;-66
2023/11/23 13:27:08;;;;;;;10.90;9.80;;;12.70;99.90;;;;;;4993713;28;20519;-67
2023/11/23 13:29:37;;;;;;;10.77;9.60;;;12.70;99.90;;;;;;5010626;28;21086;-67
2023/11/23 13:32:04;;;;;;;10.00;9.10;;;12.80;99.90;;;;;;5012361;28;20444;-67
2023/11/23 13:34:31;;;;;;;11.17;9.00;;;12.80;99.90;;;;;;5011172;28;20497;-67
2023/11/23 13:36:58;;;;;;;10.10;9.23;;;12.70;99.90;;;;;;5011296;28;20468;-67
2023/11/23 13:39:25;;;;;;;10.40;9.17;;;12.80;99.90;;;;;;5015140;28;20423;-67
2023/11/23 13:41:51;;;;;;;10.90;8.90;;;12.80;99.90;;;;;;5014573;28;20432;-67
2023/11/23 13:44:18;;;;;;;9.20;8.30;;;12.70;99.90;;;;;;4997575;28;20416;-67
2023/11/23 13:46:44;;;;;;;11.47;8.60;;;12.70;99.90;;;;;;4998121;28;20907;-68
2023/11/23 13:49:10;;;;;;;9.97;9.07;;;12.80;99.90;;;;;;5014619;28;20855;-66
2023/11/23 13:51:37;;;;;;;8.80;8.03;;;12.70;99.90;;;;;;4995700;28;20424;-67
2023/11/23 13:54:06;;;;;;;9.07;8.00;;;12.70;99.90;;;;;;5016291;28;20439;-67
2023/11/23 13:56:33;;;;;;;9.57;7.87;;;12.70;99.90;;;;;;5014003;28;20453;-68
2023/11/23 13:59:00;;;;;;;8.93;8.13;;;12.70;99.90;;;;;;5015186;28;20424;-67
2023/11/23 14:01:26;;;;;;;8.30;7.23;;;12.70;99.90;;;;;;5016083;28;20411;-67
2023/11/23 14:03:51;;;;;;;9.47;8.00;;;12.70;99.90;;;;;;5014514;28;20429;-67
2023/11/23 14:06:17;;;;;;;8.80;7.70;;;12.70;99.90;;;;;;5015051;28;20201;-67
2023/11/23 14:08:44;;;;;;;8.17;7.37;;;12.80;99.90;;;;;;5015260;28;20169;-68
2023/11/23 14:11:10;;;;;;;8.47;7.67;;;12.80;99.90;;;;;;4997236;28;20220;-67
2023/11/23 14:13:37;;;;;;;7.80;7.10;;;12.80;99.90;;;;;;5014401;28;20453;-67
2023/11/23 14:16:06;;;;;;;7.37;6.77;;;12.80;99.90;;;;;;5015058;28;20928;-67
2023/11/23 14:18:32;;;;;;;9.43;7.80;;;12.80;99.90;;;;;;5014762;28;20423;-66
2023/11/23 14:20:58;;;;;;;9.40;7.50;;;12.70;99.90;;;;;;5014752;28;20423;-67
2023/11/23 14:23:24;;;;;;;8.93;8.10;;;12.70;99.90;;;;;;5015719;28;20419;-66
2023/11/23 14:25:50;;;;;;;8.60;7.60;;;12.80;99.90;;;;;;4979779;28;20455;-66
2023/11/23 14:28:16;;;;;;;8.20;7.23;;;12.80;99.90;;;;;;5014300;28;20418;-67
2023/11/23 14:30:45;;;;;;;8.30;7.50;;;12.80;99.90;;;;;;5014753;28;20286;-67
2023/11/23 14:33:11;;;;;;;8.50;7.40;;;12.80;99.90;;;;;;5014644;28;20209;-66
2023/11/23 14:35:37;;;;;;;8.07;7.17;;;12.80;99.90;;;;;;4995689;28;20534;-66
2023/11/23 14:38:05;;;;;;;8.90;8.20;;;12.80;99.90;;;;;;4997319;28;20427;-66
2023/11/23 14:40:31;;;;;;;9.07;8.27;;;12.80;99.90;;;;;;5012737;28;20923;-67
2023/11/23 14:42:57;;;;;;;8.63;7.93;;;12.80;99.90;;;;;;5012936;28;20537;-67
2023/11/23 14:45:24;;;;;;;7.57;6.97;;;12.80;99.90;;;;;;5013609;28;20523;-67
2023/11/23 14:47:52;;;;;;;8.53;6.73;;;12.80;99.90;;;;;;5012955;28;20185;-67
2023/11/23 14:50:19;;;;;;;8.70;7.47;;;12.80;99.90;;;;;;5001513;28;20470;-67
2023/11/23 14:52:45;;;;;;;97.30;65.83;;;12.90;99.90;;;;;;4994846;28;20805;-66
2023/11/23 14:55:12;;;;;;;12.50;9.80;;;12.90;99.90;;;;;;5013002;28;20472;-67
2023/11/23 14:57:38;;;;;;;9.30;7.43;;;12.90;99.90;;;;;;5011310;28;20419;-68
2023/11/23 15:00:06;;;;;;;8.33;7.53;;;12.90;99.90;;;;;;5011233;28;20907;-67
2023/11/23 15:02:36;;;;;;;8.07;7.37;;;12.90;99.90;;;;;;4996278;28;20211;-69
2023/11/23 15:05:02;;;;;;;10.10;7.67;;;12.90;99.90;;;;;;5010855;28;20993;-67
2023/11/23 15:07:28;;;;;;;8.67;7.97;;;12.80;99.90;;;;;;5011763;28;20418;-67
2023/11/23 15:09:54;;;;;;;8.13;7.33;;;12.80;99.90;;;;;;4996460;28;20499;-67
2023/11/23 15:12:23;;;;;;;8.33;7.53;;;12.90;99.90;;;;;;4995892;28;20216;-67
2023/11/23 15:14:56;;;;;;;8.30;7.50;;;12.90;99.90;;;;;;5012944;28;20232;-67
2023/11/23 15:17:28;;;;;;;8.50;7.70;;;12.90;99.90;;;;;;4993297;28;20411;-67
2023/11/23 15:19:54;;;;;;;10.93;8.97;;;12.90;99.90;;;;;;4996269;28;20412;-66
2023/11/23 15:22:20;;;;;;;9.10;8.20;;;12.80;99.90;;;;;;5012999;28;20777;-66
2023/11/23 15:24:47;;;;;;;8.70;7.90;;;12.80;99.90;;;;;;5011833;28;20512;-67
2023/11/23 15:27:13;;;;;;;9.97;9.03;;;12.80;99.90;;;;;;4996523;28;20897;-66
2023/11/23 15:29:40;;;;;;;10.20;9.20;;;12.90;99.90;;;;;;5010897;28;20466;-67
2023/11/23 15:32:07;;;;;;;10.67;9.67;;;12.90;99.90;;;;;;5013165;28;20421;-62
2023/11/23 15:34:33;;;;;;;10.23;9.00;;;12.90;99.90;;;;;;5014312;28;20424;-62
2023/11/23 15:36:59;;;;;;;9.00;8.10;;;12.90;99.90;;;;;;5012130;28;20418;-61
2023/11/23 15:39:27;;;;;;;10.27;8.80;;;12.90;99.90;;;;;;5012379;28;20934;-69